Time;durP1;ratioP1;P1;durP2;ratioP2;P2;SDS_P1;SDS_P2;PMS_P1;PMS_P2;Temp;Humidity;BMP_temperature;BMP_pressure;BME280_temperature;BME280_humidity;BME280_pressure;Samples;Min_cycle;Max_cycle;Signal;HPM_P1;HPM_P2
2022/05/23 00:01:48;;;;;;;1.63;1.30;;;19.10;57.70;;;;;;5114879;28;20096;-73
2022/05/23 00:04:14;;;;;;;1.23;1.10;;;19.10;56.30;;;;;;5115068;28;20366;-73
2022/05/23 00:06:40;;;;;;;1.73;1.30;;;19.00;55.30;;;;;;5114502;28;20035;-73
2022/05/23 00:09:06;;;;;;;1.45;1.05;;;19.00;54.60;;;;;;5114926;28;20026;-73
2022/05/23 00:11:32;;;;;;;1.75;1.13;;;19.00;54.80;;;;;;5114196;28;20379;-74
2022/05/23 00:13:58;;;;;;;1.17;1.08;;;18.90;55.10;;;;;;5114638;28;20030;-72
2022/05/23 00:16:34;;;;;;;1.13;0.80;;;18.90;55.70;;;;;;5114185;28;20396;-73
2022/05/23 00:18:59;;;;;;;1.10;1.00;;;18.80;56.10;;;;;;5114963;28;20073;-73
2022/05/23 00:21:45;;;;;;;2.15;0.93;;;18.80;56.20;;;;;;5113820;28;20028;-73
2022/05/23 00:24:13;;;;;;;2.05;1.10;;;18.80;56.30;;;;;;5114797;28;20049;-73
2022/05/23 00:26:40;;;;;;;1.63;1.10;;;18.90;56.20;;;;;;5113872;28;20465;-73
2022/05/23 00:29:06;;;;;;;1.67;1.00;;;18.90;55.60;;;;;;5114532;28;20019;-73
2022/05/23 00:31:33;;;;;;;0.90;0.80;;;18.80;55.90;;;;;;5114030;28;20028;-74
2022/05/23 00:36:43;;;;;;;2.97;1.00;;;18.70;55.60;;;;;;5113772;28;20043;-74
2022/05/23 00:39:09;;;;;;;0.93;0.80;;;18.60;55.90;;;;;;5114399;28;20023;-74
2022/05/23 00:44:26;;;;;;;2.03;0.90;;;18.50;57.10;;;;;;5113384;28;20077;-74
2022/05/23 00:47:03;;;;;;;1.17;1.08;;;18.40;57.40;;;;;;5114280;28;20372;-72
2022/05/23 00:49:37;;;;;;;0.70;0.70;;;18.40;57.50;;;;;;5113683;28;20019;-72
2022/05/23 00:52:08;;;;;;;0.70;0.70;;;18.40;57.80;;;;;;5114282;28;20023;-74
2022/05/23 00:54:36;;;;;;;;;;;18.30;58.20;;;;;;5113873;28;20376;-74
2022/05/23 00:57:02;;;;;;;1.60;1.00;;;18.40;58.20;;;;;;5114021;28;19907;-74
2022/05/23 00:59:32;;;;;;;1.85;0.95;;;18.30;58.60;;;;;;5113403;28;20034;-72
2022/05/23 01:01:59;;;;;;;1.75;1.05;;;18.30;58.90;;;;;;5113675;28;20468;-73
2022/05/23 01:04:26;;;;;;;3.92;1.10;;;18.20;59.00;;;;;;5112889;28;20062;-74
2022/05/23 01:06:51;;;;;;;2.08;1.00;;;18.20;59.20;;;;;;5113855;28;20489;-74
2022/05/23 01:09:20;;;;;;;2.45;1.33;;;18.20;59.30;;;;;;5113801;28;20032;-73
2022/05/23 01:11:46;;;;;;;1.33;1.13;;;18.30;59.50;;;;;;5113482;28;20114;-74
2022/05/23 01:14:11;;;;;;;2.95;1.23;;;18.30;59.60;;;;;;5112089;28;20138;-73
2022/05/23 01:16:38;;;;;;;2.95;1.13;;;18.20;59.80;;;;;;5113026;28;20027;-72
2022/05/23 01:19:03;;;;;;;2.42;1.40;;;18.20;60.30;;;;;;5113542;28;20168;-72
2022/05/23 01:21:34;;;;;;;1.10;1.00;;;18.20;60.50;;;;;;5111585;28;20023;-73
2022/05/23 01:24:05;;;;;;;1.50;1.10;;;18.20;60.70;;;;;;5113258;28;20027;-72
2022/05/23 01:26:32;;;;;;;3.63;1.90;;;18.20;60.50;;;;;;5112923;28;20035;-72
2022/05/23 01:28:58;;;;;;;2.47;1.17;;;18.20;60.70;;;;;;5112084;28;20107;-72
2022/05/23 01:31:24;;;;;;;1.25;1.15;;;18.30;60.80;;;;;;5112767;28;20137;-73
2022/05/23 01:34:08;;;;;;;1.20;1.10;;;18.20;61.00;;;;;;5113187;28;20034;-73
2022/05/23 01:36:34;;;;;;;2.25;1.45;;;18.20;61.00;;;;;;5112665;28;20129;-73
2022/05/23 01:39:00;;;;;;;1.52;1.13;;;18.20;61.20;;;;;;5113317;28;20111;-73
2022/05/23 01:41:26;;;;;;;2.10;1.33;;;18.30;61.30;;;;;;5112552;28;20375;-74
2022/05/23 01:43:53;;;;;;;3.40;1.40;;;18.20;61.20;;;;;;5112841;28;20035;-73
2022/05/23 01:46:20;;;;;;;1.48;1.30;;;18.20;61.70;;;;;;5113030;28;20468;-73
2022/05/23 01:48:46;;;;;;;1.75;1.45;;;18.10;62.70;;;;;;5112428;28;20110;-73
2022/05/23 01:51:12;;;;;;;1.85;1.48;;;18.10;63.00;;;;;;5113101;28;20325;-73
2022/05/23 01:53:38;;;;;;;2.95;1.58;;;18.00;62.90;;;;;;5112457;28;20044;-73
2022/05/23 01:56:05;;;;;;;2.63;1.48;;;18.00;63.10;;;;;;5113027;28;20055;-73
2022/05/23 02:01:16;;;;;;;1.85;1.30;;;17.90;63.10;;;;;;5113077;28;20042;-73
2022/05/23 02:03:44;;;;;;;2.10;1.75;;;17.90;63.10;;;;;;5112269;28;20024;-73
2022/05/23 02:06:11;;;;;;;3.58;1.30;;;17.80;63.60;;;;;;5112708;28;20065;-73
2022/05/23 02:08:37;;;;;;;1.88;1.23;;;17.80;63.30;;;;;;5111845;28;20434;-73
2022/05/23 02:11:05;;;;;;;1.40;1.30;;;17.80;63.50;;;;;;5112759;28;20028;-73
2022/05/23 02:13:33;;;;;;;1.17;0.93;;;17.80;63.40;;;;;;5112003;28;20028;-73
2022/05/23 02:15:59;;;;;;;1.60;1.25;;;17.80;63.00;;;;;;5111445;28;20052;-73
2022/05/23 02:18:25;;;;;;;2.22;1.55;;;17.80;62.50;;;;;;5112556;28;20369;-73
2022/05/23 02:20:51;;;;;;;1.50;1.40;;;17.80;62.60;;;;;;5112583;28;20070;-73
2022/05/23 02:23:16;;;;;;;1.95;1.40;;;17.80;62.80;;;;;;5112892;28;20396;-73
2022/05/23 02:25:42;;;;;;;1.30;0.93;;;17.80;63.00;;;;;;5111856;28;20479;-73
2022/05/23 02:28:08;;;;;;;1.77;1.20;;;17.80;63.20;;;;;;5112388;28;20160;-72
2022/05/23 02:30:34;;;;;;;2.17;1.52;;;17.80;62.60;;;;;;5111894;28;20023;-72
2022/05/23 02:32:59;;;;;;;1.60;1.20;;;17.80;61.60;;;;;;5112716;28;20038;-73
2022/05/23 02:35:25;;;;;;;1.10;0.93;;;17.80;61.30;;;;;;5112130;28;20090;-73
2022/05/23 02:37:51;;;;;;;1.13;0.98;;;17.80;61.20;;;;;;5111633;28;20077;-73
2022/05/23 02:40:16;;;;;;;2.85;1.05;;;17.80;61.30;;;;;;5112249;28;20114;-72
2022/05/23 02:42:43;;;;;;;1.55;1.20;;;17.80;60.90;;;;;;5111709;28;20082;-71
2022/05/23 02:45:09;;;;;;;2.85;1.70;;;17.70;60.40;;;;;;5112077;28;20027;-73
2022/05/23 02:47:35;;;;;;;0.95;0.85;;;17.70;60.10;;;;;;5111152;28;20027;-73
2022/05/23 02:50:01;;;;;;;2.85;1.10;;;17.70;59.20;;;;;;5112174;28;20447;-73
2022/05/23 02:52:26;;;;;;;1.42;1.08;;;17.60;58.90;;;;;;5112082;28;20027;-73
2022/05/23 02:54:53;;;;;;;2.28;1.10;;;17.60;59.00;;;;;;5111457;28;20024;-73
2022/05/23 02:57:19;;;;;;;1.23;1.10;;;17.60;59.90;;;;;;5111932;28;20024;-73
2022/05/23 02:59:45;;;;;;;1.05;0.90;;;17.50;60.10;;;;;;5111395;28;20050;-72
2022/05/23 03:04:55;;;;;;;1.80;1.10;;;17.40;60.10;;;;;;5112112;28;20093;-73
2022/05/23 03:07:20;;;;;;;2.08;0.88;;;17.40;60.50;;;;;;5110644;28;20028;-73
2022/05/23 03:09:46;;;;;;;2.78;1.05;;;17.40;60.60;;;;;;5111140;28;20066;-73
2022/05/23 03:12:12;;;;;;;2.08;1.10;;;17.40;60.60;;;;;;5111850;28;20027;-73
2022/05/23 03:14:38;;;;;;;1.67;1.00;;;17.40;60.70;;;;;;5111413;28;20149;-73
2022/05/23 03:17:05;;;;;;;0.98;0.90;;;17.40;60.60;;;;;;5111534;28;20508;-73
2022/05/23 03:19:35;;;;;;;1.35;1.20;;;17.30;60.40;;;;;;5111356;28;20031;-74
2022/05/23 03:27:28;;;;;;;1.27;0.95;;;17.40;60.40;;;;;;5114451;28;20038;-73
2022/05/23 03:29:54;;;;;;;1.00;0.90;;;17.40;60.40;;;;;;5115179;28;20098;-72
2022/05/23 03:32:20;;;;;;;2.47;1.33;;;17.40;59.90;;;;;;5115796;28;20024;-73
2022/05/23 03:35:05;;;;;;;2.10;1.20;;;17.40;59.80;;;;;;5114988;28;20020;-74
2022/05/23 03:37:30;;;;;;;3.95;1.10;;;17.40;60.10;;;;;;5115361;28;20046;-73
2022/05/23 03:39:56;;;;;;;2.95;1.80;;;17.40;60.50;;;;;;5115043;28;20032;-73
2022/05/23 03:42:21;;;;;;;2.50;1.40;;;17.40;60.70;;;;;;5115900;28;20019;-75
2022/05/23 03:44:47;;;;;;;1.60;1.38;;;17.40;61.80;;;;;;5114953;28;20023;-73
2022/05/23 03:47:13;;;;;;;2.05;1.52;;;17.40;61.70;;;;;;5115853;28;20035;-74
2022/05/23 03:49:38;;;;;;;2.33;1.33;;;17.50;61.80;;;;;;5114687;28;20036;-75
2022/05/23 03:52:04;;;;;;;1.52;1.20;;;17.50;62.10;;;;;;5115742;28;20046;-74
2022/05/23 03:54:31;;;;;;;2.50;1.30;;;17.50;63.30;;;;;;5115711;28;20023;-73
2022/05/23 03:56:58;;;;;;;1.20;1.10;;;17.50;63.80;;;;;;5114650;28;20047;-74
2022/05/23 03:59:25;;;;;;;1.83;1.65;;;17.50;63.70;;;;;;5115334;28;20085;-72
2022/05/23 04:01:52;;;;;;;1.73;1.00;;;17.50;64.20;;;;;;5114953;28;20028;-73
2022/05/23 04:04:18;;;;;;;1.42;1.27;;;17.60;64.20;;;;;;5115159;28;20019;-73
2022/05/23 04:06:43;;;;;;;1.38;1.10;;;17.60;64.30;;;;;;5114690;28;20039;-72
2022/05/23 04:09:09;;;;;;;1.60;0.95;;;17.60;64.00;;;;;;5114978;28;20019;-72
2022/05/23 04:11:35;;;;;;;3.63;1.60;;;17.70;63.80;;;;;;5114307;28;20107;-73
2022/05/23 04:14:00;;;;;;;1.70;1.40;;;17.80;63.50;;;;;;5114753;28;20498;-72
2022/05/23 04:16:29;;;;;;;1.55;1.20;;;17.80;63.10;;;;;;5114888;28;20053;-73
2022/05/23 04:18:55;;;;;;;1.58;1.35;;;17.90;63.00;;;;;;5114235;28;20493;-72
2022/05/23 04:21:21;;;;;;;1.55;1.17;;;18.10;63.10;;;;;;5114589;28;20028;-72
2022/05/23 04:23:47;;;;;;;3.40;1.23;;;18.20;62.40;;;;;;5114279;28;20025;-74
2022/05/23 04:26:12;;;;;;;3.05;1.52;;;18.30;62.00;;;;;;5113612;28;20023;-72
2022/05/23 04:28:41;;;;;;;1.60;1.20;;;18.40;61.50;;;;;;5110933;28;20077;-74
2022/05/23 04:31:08;;;;;;;1.02;0.93;;;18.60;61.00;;;;;;5114378;28;20030;-75
2022/05/23 04:36:18;;;;;;;2.42;1.33;;;18.90;58.40;;;;;;5114925;28;20031;-73
2022/05/23 04:38:44;;;;;;;1.48;1.27;;;19.10;57.50;;;;;;5113390;28;20027;-74
2022/05/23 04:41:10;;;;;;;2.50;1.35;;;19.20;57.10;;;;;;5114512;28;20035;-74
2022/05/23 04:43:36;;;;;;;2.22;1.45;;;19.40;56.10;;;;;;5111169;28;20383;-72
2022/05/23 04:46:02;;;;;;;1.67;1.33;;;19.50;55.10;;;;;;5092197;28;20439;-71
2022/05/23 04:51:13;;;;;;;1.80;1.05;;;19.80;53.70;;;;;;5113675;28;20506;-71
2022/05/23 04:53:39;;;;;;;1.40;1.30;;;20.00;52.90;;;;;;5113084;28;20135;-73
2022/05/23 04:56:05;;;;;;;1.30;1.02;;;20.10;52.40;;;;;;5113781;28;20046;-74
2022/05/23 04:58:31;;;;;;;1.55;1.00;;;20.30;51.50;;;;;;5113562;28;20407;-74
2022/05/23 05:00:59;;;;;;;1.33;1.20;;;20.40;50.80;;;;;;5112781;28;20266;-73
2022/05/23 05:03:25;;;;;;;2.90;1.20;;;20.70;51.30;;;;;;5113773;28;20081;-74
2022/05/23 05:05:51;;;;;;;1.58;1.00;;;20.90;50.30;;;;;;5113218;28;20172;-74
2022/05/23 05:08:17;;;;;;;0.77;0.77;;;21.10;49.00;;;;;;5113737;28;20050;-73
2022/05/23 05:10:43;;;;;;;1.15;1.05;;;21.30;49.30;;;;;;5111827;28;20032;-75
2022/05/23 05:13:08;;;;;;;4.28;1.08;;;21.60;49.40;;;;;;5113856;28;20023;-73
2022/05/23 05:15:35;;;;;;;4.63;1.23;;;22.00;47.80;;;;;;5113210;28;20039;-73
2022/05/23 05:18:01;;;;;;;1.63;1.10;;;22.40;46.20;;;;;;5112474;28;20100;-73
2022/05/23 05:20:28;;;;;;;1.15;0.93;;;22.90;45.60;;;;;;5112501;28;20028;-74
2022/05/23 05:22:54;;;;;;;1.92;1.10;;;23.60;43.90;;;;;;5112692;28;20051;-72
2022/05/23 05:25:19;;;;;;;3.22;1.15;;;24.40;42.80;;;;;;5113179;28;20116;-73
2022/05/23 05:27:45;;;;;;;1.45;1.20;;;25.10;41.10;;;;;;5112705;28;20498;-73
2022/05/23 05:30:15;;;;;;;1.80;1.20;;;25.50;40.00;;;;;;5112375;28;20023;-75
2022/05/23 05:33:03;;;;;;;1.10;1.00;;;26.70;39.40;;;;;;5111888;28;20460;-75
2022/05/23 05:35:43;;;;;;;1.20;1.00;;;27.70;37.40;;;;;;5112822;28;20058;-73
2022/05/23 05:38:13;;;;;;;1.85;0.90;;;28.50;35.50;;;;;;5112642;28;20036;-72
2022/05/23 05:40:40;;;;;;;3.08;1.00;;;28.90;34.50;;;;;;5112549;28;20480;-72
2022/05/23 05:43:12;;;;;;;1.13;1.02;;;29.40;34.00;;;;;;5112488;28;20069;-73
2022/05/23 05:45:43;;;;;;;1.15;1.08;;;30.10;32.80;;;;;;5112356;28;20050;-73
2022/05/23 05:48:10;;;;;;;1.73;0.90;;;30.40;32.40;;;;;;5112618;28;20031;-73
2022/05/23 05:50:39;;;;;;;1.85;0.93;;;29.60;31.40;;;;;;5112392;28;20043;-73
2022/05/23 05:53:13;;;;;;;1.00;0.90;;;28.80;32.90;;;;;;5111083;28;20407;-73
2022/05/23 05:55:58;;;;;;;1.45;0.95;;;29.10;34.00;;;;;;5112830;27;20377;-72
2022/05/23 05:58:24;;;;;;;1.73;0.93;;;29.40;33.40;;;;;;5112434;28;20107;-73
2022/05/23 06:00:50;;;;;;;1.10;0.80;;;30.10;32.70;;;;;;5111636;28;20110;-73
2022/05/23 06:03:16;;;;;;;1.27;1.00;;;30.30;31.80;;;;;;5112399;28;20152;-73
2022/05/23 06:11:26;;;;;;;1.25;0.85;;;31.40;30.80;;;;;;5112344;28;20391;-72
2022/05/23 06:13:54;;;;;;;0.90;0.70;;;31.40;30.30;;;;;;5111423;28;20072;-72
2022/05/23 06:16:19;;;;;;;0.70;0.70;;;31.40;30.40;;;;;;5112255;28;20028;-74
2022/05/23 06:18:45;;;;;;;1.73;0.80;;;30.90;30.00;;;;;;5111479;28;20036;-74
2022/05/23 06:21:12;;;;;;;0.73;0.60;;;30.30;30.30;;;;;;5112354;28;20117;-73
2022/05/23 06:23:39;;;;;;;1.50;0.77;;;30.00;31.00;;;;;;5112255;28;20019;-74
2022/05/23 06:26:05;;;;;;;1.20;0.70;;;29.30;31.90;;;;;;5111716;28;20460;-74
2022/05/23 06:28:31;;;;;;;1.13;0.70;;;28.70;32.40;;;;;;5112134;28;20034;-73
2022/05/23 06:30:57;;;;;;;1.65;0.63;;;28.00;32.40;;;;;;5111500;28;20039;-73
2022/05/23 06:33:24;;;;;;;0.80;0.70;;;27.40;33.00;;;;;;5112098;28;20482;-74
2022/05/23 06:35:50;;;;;;;0.40;0.40;;;26.80;33.70;;;;;;5111531;28;20079;-73
2022/05/23 06:38:16;;;;;;;1.00;0.60;;;26.60;35.10;;;;;;5112038;28;20028;-73
2022/05/23 06:40:42;;;;;;;0.80;0.63;;;26.60;34.20;;;;;;5112065;28;20042;-73
2022/05/23 06:43:08;;;;;;;0.60;0.57;;;26.30;33.20;;;;;;5111336;28;20114;-74
2022/05/23 06:45:34;;;;;;;0.95;0.70;;;25.90;34.50;;;;;;5111798;28;20099;-73
2022/05/23 06:48:00;;;;;;;1.00;0.65;;;25.80;34.50;;;;;;5109970;28;20032;-74
2022/05/23 06:50:25;;;;;;;1.23;0.65;;;25.50;34.50;;;;;;5111484;28;20024;-73
2022/05/23 06:52:52;;;;;;;1.10;0.47;;;25.30;34.50;;;;;;5111278;28;20173;-73
2022/05/23 06:55:17;;;;;;;0.55;0.50;;;25.10;35.40;;;;;;5111897;28;20445;-73
2022/05/23 06:57:43;;;;;;;0.85;0.80;;;25.00;35.70;;;;;;5111000;28;20034;-73
2022/05/23 07:00:10;;;;;;;1.40;0.70;;;25.10;36.10;;;;;;5111880;28;20032;-72
2022/05/23 07:02:37;;;;;;;0.75;0.60;;;24.90;35.80;;;;;;5113892;28;20434;-73
2022/05/23 07:13:15;;;;;;;1.05;0.82;;;24.70;36.60;;;;;;5115916;28;20117;-73
2022/05/23 07:15:46;;;;;;;0.60;0.60;;;24.50;36.70;;;;;;5115022;28;20060;-72
2022/05/23 07:18:13;;;;;;;0.30;0.30;;;24.30;36.30;;;;;;5114386;28;20035;-73
2022/05/23 07:20:40;;;;;;;0.88;0.57;;;24.20;35.50;;;;;;5095059;28;20043;-73
2022/05/23 07:23:05;;;;;;;0.50;0.40;;;24.00;36.30;;;;;;5093749;28;20030;-73
2022/05/23 07:25:31;;;;;;;1.92;0.45;;;24.00;35.60;;;;;;5095047;28;20028;-73
2022/05/23 07:27:57;;;;;;;0.40;0.40;;;24.00;36.20;;;;;;5094766;28;20047;-73
2022/05/23 07:30:23;;;;;;;0.77;0.50;;;24.00;36.30;;;;;;5095147;28;20107;-73
2022/05/23 07:32:49;;;;;;;0.55;0.55;;;24.10;36.50;;;;;;5094642;28;20469;-74
2022/05/23 07:35:16;;;;;;;1.52;0.47;;;24.10;36.20;;;;;;5095093;28;20027;-72
2022/05/23 07:37:42;;;;;;;1.20;0.60;;;24.10;36.60;;;;;;5095147;28;20197;-72
2022/05/23 07:40:09;;;;;;;0.50;0.50;;;24.10;36.50;;;;;;5094605;28;20324;-73
2022/05/23 07:42:35;;;;;;;0.60;0.60;;;24.30;36.90;;;;;;5095099;28;20368;-73
2022/05/23 07:45:01;;;;;;;0.60;0.60;;;24.30;37.10;;;;;;5093974;28;20561;-72
2022/05/23 07:47:28;;;;;;;2.58;0.70;;;24.50;37.10;;;;;;5094641;28;20165;-72
2022/05/23 07:49:53;;;;;;;0.50;0.50;;;24.60;36.50;;;;;;5093983;28;20070;-73
2022/05/23 07:52:20;;;;;;;0.50;0.50;;;24.70;36.60;;;;;;5094636;28;20028;-73
2022/05/23 08:00:34;;;;;;;1.02;0.75;;;24.00;36.10;;;;;;5094343;28;20077;-72
2022/05/23 08:03:10;;;;;;;0.57;0.50;;;23.90;36.90;;;;;;5093904;28;20059;-73
2022/05/23 08:05:37;;;;;;;1.60;0.50;;;23.70;37.10;;;;;;5094696;28;20074;-74
2022/05/23 08:08:03;;;;;;;0.43;0.43;;;23.70;38.40;;;;;;5094130;28;20108;-72
2022/05/23 08:10:28;;;;;;;0.80;0.60;;;23.60;38.40;;;;;;5094521;28;20461;-73
2022/05/23 08:12:57;;;;;;;0.50;0.50;;;23.70;38.50;;;;;;5092324;28;20035;-73
2022/05/23 08:15:24;;;;;;;1.13;0.45;;;23.80;38.70;;;;;;5094318;28;20052;-73
2022/05/23 08:17:50;;;;;;;1.25;0.98;;;23.80;38.20;;;;;;5093344;28;20056;-72
2022/05/23 08:20:16;;;;;;;0.50;0.50;;;23.90;38.60;;;;;;5093051;28;20075;-73
2022/05/23 08:22:42;;;;;;;0.43;0.43;;;24.00;38.90;;;;;;5094355;28;20024;-72
2022/05/23 08:25:08;;;;;;;0.75;0.60;;;24.00;38.00;;;;;;5093637;28;20024;-73
2022/05/23 08:27:34;;;;;;;1.10;0.68;;;24.00;38.30;;;;;;5092800;28;20384;-73
2022/05/23 08:30:01;;;;;;;0.40;0.20;;;24.10;38.40;;;;;;5093626;28;20027;-73
2022/05/23 08:32:27;;;;;;;0.68;0.60;;;24.20;38.20;;;;;;5094186;28;20024;-73
2022/05/23 08:34:53;;;;;;;1.02;0.30;;;24.10;38.20;;;;;;5093288;28;20111;-73
2022/05/23 08:37:19;;;;;;;0.82;0.43;;;24.20;38.10;;;;;;5093738;28;20429;-73
2022/05/23 08:39:46;;;;;;;0.57;0.50;;;24.00;37.90;;;;;;5094039;28;20493;-72
2022/05/23 08:42:25;;;;;;;0.90;0.50;;;24.00;38.40;;;;;;5093332;28;20024;-73
2022/05/23 08:45:08;;;;;;;0.75;0.50;;;23.90;39.00;;;;;;5093580;28;20034;-73
2022/05/23 08:47:37;;;;;;;0.52;0.40;;;23.90;38.90;;;;;;5094379;28;20109;-73
2022/05/23 08:50:23;;;;;;;1.13;0.82;;;23.90;39.70;;;;;;5093351;28;20504;-72
2022/05/23 08:52:59;;;;;;;1.00;0.63;;;23.90;39.40;;;;;;5093866;28;20024;-72
2022/05/23 08:55:30;;;;;;;1.40;0.50;;;23.80;39.90;;;;;;5093804;28;20488;-72
2022/05/23 08:58:32;;;;;;;0.57;0.57;;;23.80;39.80;;;;;;5113159;28;20038;-73
2022/05/23 09:01:11;;;;;;;1.65;0.95;;;23.80;39.90;;;;;;5113268;28;20066;-73
2022/05/23 09:03:44;;;;;;;0.82;0.52;;;23.70;39.80;;;;;;5114099;28;20111;-73
2022/05/23 09:06:22;;;;;;;0.40;0.40;;;23.70;40.70;;;;;;5111874;28;20058;-72
2022/05/23 09:08:51;;;;;;;1.10;0.80;;;23.60;40.40;;;;;;5113791;28;20054;-72
2022/05/23 09:11:37;;;;;;;0.50;0.50;;;23.70;40.40;;;;;;5113256;28;20092;-73
2022/05/23 09:14:05;;;;;;;1.30;0.60;;;23.70;40.20;;;;;;5112483;28;20042;-72
2022/05/23 09:16:41;;;;;;;1.40;0.60;;;23.70;39.60;;;;;;5113423;28;20076;-72
2022/05/23 09:19:14;;;;;;;1.00;0.50;;;23.60;40.20;;;;;;5112820;28;20112;-73
2022/05/23 09:24:30;;;;;;;0.40;0.40;;;23.40;40.30;;;;;;5113076;28;20034;-73
2022/05/23 09:26:59;;;;;;;;;;;23.30;40.00;;;;;;5113528;28;20038;-73
2022/05/23 09:29:24;;;;;;;0.57;0.57;;;23.30;40.30;;;;;;5113521;28;20268;-73
2022/05/23 09:31:50;;;;;;;0.50;0.50;;;23.20;40.60;;;;;;5113353;28;20019;-73
2022/05/23 09:34:48;;;;;;;1.35;0.70;;;23.00;40.80;;;;;;5112771;28;20035;-72
2022/05/23 09:37:21;;;;;;;0.90;0.50;;;23.00;40.30;;;;;;5112845;28;20479;-73
2022/05/23 09:39:53;;;;;;;0.88;0.50;;;23.00;41.10;;;;;;5113413;28;20032;-73
2022/05/23 09:48:13;;;;;;;1.17;0.82;;;23.00;41.70;;;;;;5112624;28;20248;-72
2022/05/23 09:50:44;;;;;;;3.55;0.55;;;23.00;41.70;;;;;;5112926;28;20088;-73
2022/05/23 09:53:31;;;;;;;0.93;0.68;;;23.00;41.40;;;;;;5112469;28;20020;-73
2022/05/23 09:56:31;;;;;;;0.80;0.80;;;23.10;41.60;;;;;;5112552;28;20019;-74
2022/05/23 09:59:20;;;;;;;0.93;0.75;;;23.10;41.60;;;;;;5112388;28;20031;-74
2022/05/23 10:01:46;;;;;;;0.93;0.73;;;23.30;42.20;;;;;;5112782;28;20050;-73
2022/05/23 10:04:43;;;;;;;1.67;0.90;;;23.40;41.90;;;;;;5112074;28;20379;-73
2022/05/23 10:07:27;;;;;;;0.68;0.68;;;23.50;41.90;;;;;;5111155;28;20472;-73
2022/05/23 10:09:59;;;;;;;1.13;0.70;;;23.50;40.70;;;;;;5112721;28;20414;-73
2022/05/23 10:12:25;;;;;;;1.67;0.90;;;23.60;41.70;;;;;;5112602;28;20031;-72
2022/05/23 10:15:01;;;;;;;0.98;0.70;;;23.60;41.10;;;;;;5112622;28;20066;-73
2022/05/23 10:17:35;;;;;;;0.90;0.55;;;23.60;41.10;;;;;;5112678;28;20032;-73
2022/05/23 10:20:23;;;;;;;0.93;0.50;;;23.60;41.70;;;;;;5112224;28;20109;-74
2022/05/23 10:22:58;;;;;;;1.23;1.05;;;23.70;42.30;;;;;;5112634;28;20027;-73
2022/05/23 10:25:27;;;;;;;1.98;0.73;;;23.70;41.40;;;;;;5112584;28;20030;-73
2022/05/23 10:28:04;;;;;;;0.70;0.70;;;23.80;41.00;;;;;;5112615;28;20058;-73
2022/05/23 10:30:34;;;;;;;2.45;1.02;;;23.80;41.00;;;;;;5112858;28;20072;-73
2022/05/23 10:33:10;;;;;;;1.15;0.80;;;23.70;41.50;;;;;;5111905;28;20173;-73
2022/05/23 10:35:37;;;;;;;1.10;0.70;;;23.70;41.20;;;;;;5111845;28;20024;-73
2022/05/23 10:44:14;;;;;;;0.60;0.60;;;23.50;41.70;;;;;;5112307;28;20035;-74
2022/05/23 10:46:43;;;;;;;1.05;0.70;;;23.30;42.30;;;;;;5112565;28;20028;-73
2022/05/23 10:49:40;;;;;;;1.10;0.68;;;23.20;42.20;;;;;;5110990;28;20118;-74
2022/05/23 10:52:10;;;;;;;0.60;0.52;;;23.20;42.10;;;;;;5111654;28;20024;-74
2022/05/23 10:54:40;;;;;;;0.60;0.60;;;23.30;42.80;;;;;;5112065;28;20049;-73
2022/05/23 10:57:26;;;;;;;1.47;0.70;;;23.30;42.40;;;;;;5111820;28;20059;-73
2022/05/23 11:00:03;;;;;;;1.48;0.80;;;23.40;41.80;;;;;;5112006;28;20028;-72
2022/05/23 11:02:47;;;;;;;1.02;0.90;;;23.50;41.90;;;;;;5111929;28;20051;-74
2022/05/23 11:05:32;;;;;;;1.20;0.80;;;23.50;41.80;;;;;;5111408;28;20032;-74
2022/05/23 11:08:05;;;;;;;1.20;0.70;;;23.50;41.80;;;;;;5111910;28;20093;-72
2022/05/23 11:10:56;;;;;;;1.35;1.10;;;23.50;41.70;;;;;;5112063;28;20047;-73
2022/05/23 11:13:28;;;;;;;1.42;1.08;;;23.60;41.70;;;;;;5110177;28;20042;-73
2022/05/23 11:16:13;;;;;;;1.02;0.50;;;23.60;42.00;;;;;;5111559;28;20083;-73
2022/05/23 11:19:13;;;;;;;1.25;0.70;;;23.50;42.10;;;;;;5111768;28;20032;-73
2022/05/23 11:22:02;;;;;;;0.50;0.50;;;23.60;42.60;;;;;;5112051;28;20027;-73
2022/05/23 11:25:01;;;;;;;0.82;0.70;;;23.60;42.20;;;;;;5111962;28;20020;-73
2022/05/23 11:35:48;;;;;;;1.00;0.60;;;23.30;43.00;;;;;;5111879;28;20030;-73
2022/05/23 11:38:18;;;;;;;2.05;0.98;;;23.30;43.30;;;;;;5110964;28;20065;-73
2022/05/23 11:41:01;;;;;;;1.10;0.80;;;23.30;43.20;;;;;;5111770;28;20084;-72
2022/05/23 11:43:28;;;;;;;0.65;0.55;;;23.30;43.40;;;;;;5111259;28;20066;-73
2022/05/23 11:45:57;;;;;;;0.95;0.90;;;23.30;43.50;;;;;;5111334;28;20374;-73
2022/05/23 11:48:39;;;;;;;0.80;0.70;;;23.30;43.40;;;;;;5112593;28;20031;-73
2022/05/23 11:51:23;;;;;;;0.60;0.60;;;23.30;43.00;;;;;;5114522;28;20092;-75
2022/05/23 11:54:03;;;;;;;0.68;0.63;;;23.30;43.70;;;;;;5115448;28;20024;-73
2022/05/23 11:56:59;;;;;;;2.08;0.90;;;23.30;43.60;;;;;;5115015;28;20439;-73
2022/05/23 11:59:25;;;;;;;3.30;0.80;;;23.30;43.90;;;;;;5114589;28;20394;-73
2022/05/23 12:02:09;;;;;;;0.47;0.45;;;23.20;44.10;;;;;;5115328;28;20028;-74
2022/05/23 12:04:55;;;;;;;0.73;0.63;;;23.20;44.00;;;;;;5115304;28;20036;-73
2022/05/23 12:07:44;;;;;;;1.15;0.77;;;23.10;43.80;;;;;;5114411;28;20031;-74
2022/05/23 12:10:22;;;;;;;1.23;0.75;;;23.10;44.30;;;;;;5114692;28;20023;-73
2022/05/23 12:12:53;;;;;;;1.42;0.70;;;23.00;44.40;;;;;;5114995;28;20051;-73
2022/05/23 12:15:43;;;;;;;0.95;0.70;;;23.00;44.20;;;;;;5114453;28;20437;-73
2022/05/23 12:18:32;;;;;;;2.35;0.80;;;23.00;44.90;;;;;;5114238;28;20028;-70
2022/05/23 12:21:36;;;;;;;1.08;0.60;;;23.00;44.30;;;;;;5114851;28;20057;-72
2022/05/23 12:24:28;;;;;;;1.77;1.00;;;22.90;44.80;;;;;;5114541;28;20024;-73
2022/05/23 12:26:57;;;;;;;1.80;0.75;;;22.90;44.70;;;;;;5114790;28;20026;-72
2022/05/23 12:29:35;;;;;;;0.60;0.60;;;22.90;44.90;;;;;;5113887;28;20020;-73
2022/05/23 12:32:16;;;;;;;0.75;0.65;;;22.90;45.00;;;;;;5114253;28;20533;-73
2022/05/23 12:34:46;;;;;;;1.25;0.90;;;22.90;44.60;;;;;;5114579;28;20028;-73
2022/05/23 12:37:27;;;;;;;0.80;0.65;;;22.90;44.80;;;;;;5114036;28;20040;-73
2022/05/23 12:40:01;;;;;;;0.73;0.65;;;22.90;45.00;;;;;;5114455;27;20460;-73
2022/05/23 12:42:53;;;;;;;0.88;0.68;;;22.90;45.20;;;;;;5113939;28;20028;-73
2022/05/23 12:45:40;;;;;;;1.20;0.77;;;23.00;45.40;;;;;;5112963;28;20032;-73
2022/05/23 12:51:07;;;;;;;1.70;0.80;;;23.00;45.60;;;;;;5114221;28;20411;-73
2022/05/23 12:53:45;;;;;;;1.00;0.70;;;22.90;45.60;;;;;;5113663;28;20035;-73
2022/05/23 12:56:52;;;;;;;3.40;0.90;;;22.90;46.00;;;;;;5093387;28;20028;-73
2022/05/23 13:00:03;;;;;;;0.70;0.60;;;22.90;46.00;;;;;;5092346;28;20036;-72
2022/05/23 13:02:57;;;;;;;1.60;0.82;;;22.80;45.60;;;;;;5079436;28;20096;-73
2022/05/23 13:05:31;;;;;;;3.47;0.95;;;22.80;45.80;;;;;;5109451;28;20024;-73
2022/05/23 13:07:59;;;;;;;1.38;0.98;;;22.70;45.80;;;;;;5114115;28;20038;-73
2022/05/23 13:10:32;;;;;;;1.75;0.90;;;22.70;46.10;;;;;;5111915;28;20392;-73
2022/05/23 13:13:27;;;;;;;1.58;0.80;;;22.60;46.30;;;;;;5113860;28;20024;-72
2022/05/23 13:15:52;;;;;;;0.90;0.70;;;22.60;47.00;;;;;;5067722;28;20443;-72
2022/05/23 13:24:02;;;;;;;0.90;0.77;;;22.50;47.50;;;;;;5071528;28;20453;-73
2022/05/23 13:26:28;;;;;;;2.85;1.02;;;22.60;48.10;;;;;;5071026;28;20374;-73
2022/05/23 13:28:54;;;;;;;2.25;1.33;;;22.60;47.50;;;;;;5071463;28;20028;-74
2022/05/23 13:31:34;;;;;;;0.82;0.80;;;22.70;48.10;;;;;;5072231;28;20031;-74
2022/05/23 13:34:00;;;;;;;1.77;0.80;;;22.70;47.90;;;;;;5072931;28;20032;-73
2022/05/23 13:36:39;;;;;;;1.00;0.90;;;22.70;47.30;;;;;;5072305;28;20024;-73
2022/05/23 13:39:09;;;;;;;2.58;1.02;;;22.60;47.80;;;;;;5072687;28;20032;-73
2022/05/23 13:41:34;;;;;;;5.82;1.30;;;22.60;48.60;;;;;;5072158;28;20077;-73
2022/05/23 13:44:00;;;;;;;0.93;0.90;;;22.50;48.30;;;;;;5072655;28;20111;-73
2022/05/23 13:46:40;;;;;;;0.80;0.80;;;22.50;48.60;;;;;;5071795;28;20426;-73
2022/05/23 13:49:41;;;;;;;1.15;0.90;;;22.30;48.60;;;;;;5072317;28;20028;-72
2022/05/23 13:52:14;;;;;;;0.95;0.80;;;22.20;49.10;;;;;;5072014;28;20420;-73
2022/05/23 13:54:51;;;;;;;1.55;1.30;;;22.20;49.40;;;;;;5072199;28;20366;-73
2022/05/23 13:57:23;;;;;;;0.65;0.65;;;22.10;49.60;;;;;;5071718;28;20032;-73
2022/05/23 13:59:52;;;;;;;2.95;0.80;;;22.00;49.90;;;;;;5072499;28;20025;-73
2022/05/23 14:02:20;;;;;;;1.83;0.80;;;22.00;50.20;;;;;;5071783;28;20025;-73
2022/05/23 14:04:48;;;;;;;2.67;0.95;;;22.00;50.00;;;;;;5072339;28;20028;-73
2022/05/23 14:07:17;;;;;;;0.70;0.65;;;22.00;50.40;;;;;;5071982;28;20492;-73
2022/05/23 14:09:57;;;;;;;1.10;1.00;;;22.00;50.40;;;;;;5072215;28;20025;-73
2022/05/23 14:12:34;;;;;;;1.13;0.90;;;22.10;50.30;;;;;;5071032;28;20112;-73
2022/05/23 14:15:05;;;;;;;1.65;0.77;;;22.00;50.60;;;;;;5093326;28;20054;-74
2022/05/23 14:17:43;;;;;;;1.02;0.75;;;22.00;50.60;;;;;;5112004;28;20031;-73
2022/05/23 14:20:27;;;;;;;2.08;0.85;;;22.00;50.60;;;;;;5112840;28;20396;-73
2022/05/23 14:23:05;;;;;;;2.05;1.00;;;22.00;50.40;;;;;;5112621;28;20043;-73